createdAt,value
2018-09-28T00:02:17.930Z,13.65
2018-09-28T00:04:46.633Z,13.59
2018-09-28T00:07:15.373Z,13.57
2018-09-28T00:09:44.163Z,13.53
2018-09-28T00:12:13.691Z,13.51
2018-09-28T00:14:42.358Z,13.50
2018-09-28T00:17:11.167Z,13.47
2018-09-28T00:19:40.029Z,13.48
2018-09-28T00:22:08.950Z,13.47
2018-09-28T00:24:37.868Z,13.45
2018-09-28T00:27:09.413Z,13.43
2018-09-28T00:29:38.183Z,13.38
2018-09-28T00:32:07.274Z,13.34
2018-09-28T00:34:36.161Z,13.29
2018-09-28T00:37:04.789Z,13.24
2018-09-28T00:39:33.697Z,13.20
2018-09-28T00:42:02.811Z,13.16
2018-09-28T00:44:46.737Z,13.14
2018-09-28T00:47:19.032Z,13.11
2018-09-28T00:49:48.101Z,13.10
2018-09-28T00:52:17.101Z,13.03
2018-09-28T00:54:45.875Z,12.98
2018-09-28T00:57:14.768Z,12.96
2018-09-28T00:59:44.085Z,12.90
2018-09-28T01:02:12.932Z,12.89
2018-09-28T01:04:42.709Z,12.86
2018-09-28T01:07:11.388Z,12.83
2018-09-28T01:09:40.207Z,12.80
2018-09-28T01:12:10.250Z,12.79
2018-09-28T01:14:40.001Z,12.75
2018-09-28T01:17:08.971Z,12.73
2018-09-28T01:19:38.988Z,12.70
2018-09-28T01:22:07.747Z,12.64
2018-09-28T01:24:36.431Z,12.60
2018-09-28T01:27:05.269Z,12.53
2018-09-28T01:29:34.827Z,12.51
2018-09-28T01:32:04.250Z,12.47
2018-09-28T01:34:33.070Z,12.45
2018-09-28T01:37:01.948Z,12.43
2018-09-28T01:39:31.482Z,12.44
2018-09-28T01:42:00.295Z,12.42
2018-09-28T01:44:29.029Z,12.35
2018-09-28T01:46:57.717Z,12.33
2018-09-28T01:49:26.311Z,12.29
2018-09-28T01:51:54.980Z,12.27
2018-09-28T01:54:23.661Z,12.25
2018-09-28T01:56:52.369Z,12.23
2018-09-28T01:59:21.283Z,12.21
2018-09-28T02:01:50.449Z,12.20
2018-09-28T02:04:19.198Z,12.18
2018-09-28T02:06:48.281Z,12.17
2018-09-28T02:09:16.964Z,12.19
2018-09-28T02:11:46.090Z,12.18
2018-09-28T02:14:14.730Z,12.16
2018-09-28T02:16:44.430Z,12.14
2018-09-28T02:19:13.444Z,12.11
2018-09-28T02:21:42.205Z,12.11
2018-09-28T02:24:11.018Z,12.11
2018-09-28T02:26:39.940Z,12.07
2018-09-28T02:29:08.799Z,12.05
2018-09-28T02:31:38.018Z,12.01
2018-09-28T02:34:07.139Z,11.99
2018-09-28T02:36:36.367Z,11.96
2018-09-28T02:39:06.631Z,11.95
2018-09-28T02:41:36.529Z,11.88
2018-09-28T02:44:05.243Z,11.83
2018-09-28T02:46:34.776Z,11.81
2018-09-28T02:49:03.686Z,11.76
2018-09-28T02:51:32.452Z,11.77
2018-09-28T02:54:01.414Z,11.76
2018-09-28T02:56:43.723Z,11.73
2018-09-28T02:59:13.670Z,11.71
2018-09-28T03:01:42.378Z,11.69
2018-09-28T03:04:11.348Z,11.66
2018-09-28T03:06:40.291Z,11.69
2018-09-28T03:09:10.223Z,11.67
2018-09-28T03:11:39.144Z,11.63
2018-09-28T03:14:09.841Z,11.64
2018-09-28T03:16:39.453Z,11.58
2018-09-28T03:19:08.590Z,11.54
2018-09-28T03:21:37.711Z,11.54
2018-09-28T03:24:06.469Z,11.49
2018-09-28T03:26:35.317Z,11.46
2018-09-28T03:29:04.109Z,11.47
2018-09-28T03:31:32.797Z,11.45
2018-09-28T03:34:01.619Z,11.44
2018-09-28T03:36:30.364Z,11.43
2018-09-28T03:38:59.270Z,11.42
2018-09-28T03:41:28.256Z,11.42
2018-09-28T03:43:57.364Z,11.39
2018-09-28T03:46:26.444Z,11.39
2018-09-28T03:48:55.848Z,11.38
2018-09-28T03:51:24.856Z,11.41
2018-09-28T03:53:53.883Z,11.43
2018-09-28T03:56:22.970Z,11.41
2018-09-28T03:58:58.359Z,11.41
2018-09-28T04:01:28.333Z,11.42
2018-09-28T04:03:57.387Z,11.42
2018-09-28T04:06:26.325Z,11.43
2018-09-28T04:08:55.293Z,11.43
2018-09-28T04:11:24.000Z,11.42
2018-09-28T04:13:53.054Z,11.44
2018-09-28T04:16:21.821Z,11.45
2018-09-28T04:18:51.410Z,11.47
2018-09-28T04:21:22.360Z,11.51
2018-09-28T04:23:51.246Z,11.55
2018-09-28T04:26:20.191Z,11.59
2018-09-28T04:28:49.036Z,11.59
2018-09-28T04:31:17.797Z,11.57
2018-09-28T04:33:46.478Z,11.59
2018-09-28T04:36:15.246Z,11.58
2018-09-28T04:38:44.941Z,11.56
2018-09-28T04:41:13.662Z,11.55
2018-09-28T04:43:42.691Z,11.53
2018-09-28T04:46:12.739Z,11.53
2018-09-28T04:48:44.048Z,11.51
2018-09-28T04:51:13.070Z,11.50
2018-09-28T04:53:41.861Z,11.54
2018-09-28T04:56:11.746Z,11.54
2018-09-28T04:58:40.777Z,11.57
2018-09-28T05:01:09.639Z,11.57
2018-09-28T05:03:39.366Z,11.62
2018-09-28T05:06:08.194Z,11.62
2018-09-28T05:08:37.456Z,11.65
2018-09-28T05:11:06.174Z,11.67
2018-09-28T05:13:35.992Z,11.75
2018-09-28T05:16:05.174Z,11.78
2018-09-28T05:18:34.072Z,11.81
2018-09-28T05:21:02.966Z,11.84
2018-09-28T05:23:31.741Z,11.90
2018-09-28T05:26:01.142Z,11.98
2018-09-28T05:28:30.358Z,12.04
2018-09-28T05:30:59.072Z,12.09
2018-09-28T05:33:27.934Z,12.11
2018-09-28T05:35:56.684Z,12.12
2018-09-28T05:38:25.366Z,12.14
2018-09-28T05:40:54.191Z,12.18
2018-09-28T05:43:22.960Z,12.25
2018-09-28T05:45:51.551Z,12.32
2018-09-28T05:48:20.170Z,12.40
2018-09-28T05:50:49.115Z,12.49
2018-09-28T05:53:18.536Z,12.66
2018-09-28T05:55:47.438Z,12.77
2018-09-28T05:58:21.601Z,12.85
2018-09-28T06:00:56.885Z,12.93
2018-09-28T06:03:26.580Z,12.90
2018-09-28T06:06:02.668Z,12.91
2018-09-28T06:08:32.456Z,12.96
2018-09-28T06:11:02.353Z,12.99
2018-09-28T06:13:31.265Z,13.04
2018-09-28T06:16:00.361Z,13.09
2018-09-28T06:18:29.226Z,13.12
2018-09-28T06:20:58.142Z,13.08
2018-09-28T06:23:27.015Z,13.04
2018-09-28T06:25:55.905Z,13.09
2018-09-28T06:28:25.891Z,13.11
2018-09-28T06:30:55.550Z,13.11
2018-09-28T06:33:24.334Z,13.11
2018-09-28T06:35:53.998Z,13.03
2018-09-28T06:38:23.071Z,13.06
2018-09-28T06:40:52.621Z,13.09
2018-09-28T06:43:21.685Z,13.16
2018-09-28T06:45:54.028Z,13.16
2018-09-28T06:48:25.086Z,13.14
2018-09-28T06:50:54.114Z,13.16
2018-09-28T06:53:22.917Z,13.15
2018-09-28T06:55:51.716Z,13.18
2018-09-28T06:58:20.948Z,13.26
2018-09-28T07:00:50.313Z,13.17
2018-09-28T07:03:19.043Z,13.18
2018-09-28T07:05:48.111Z,13.14
2018-09-28T07:08:19.160Z,13.16
2018-09-28T07:10:47.997Z,13.22
2018-09-28T07:13:17.579Z,13.16
2018-09-28T07:15:46.319Z,13.13
2018-09-28T07:18:15.021Z,13.28
2018-09-28T07:20:43.807Z,13.24
2018-09-28T07:23:12.482Z,13.29
2018-09-28T07:25:41.305Z,13.20
2018-09-28T07:28:10.237Z,13.13
2018-09-28T07:30:39.024Z,13.13
2018-09-28T07:33:08.509Z,13.12
2018-09-28T07:35:37.355Z,13.14
2018-09-28T07:38:06.192Z,13.16
2018-09-28T07:40:34.861Z,13.20
2018-09-28T07:43:03.721Z,13.23
2018-09-28T07:45:32.445Z,13.28
2018-09-28T07:48:07.956Z,13.36
2018-09-28T07:50:36.678Z,13.41
2018-09-28T07:53:05.515Z,13.47
2018-09-28T07:55:34.384Z,13.52
2018-09-28T07:58:03.502Z,13.53
2018-09-28T08:00:32.312Z,13.52
2018-09-28T08:03:01.863Z,13.58
2018-09-28T08:05:30.601Z,13.59
2018-09-28T08:07:59.425Z,13.62
2018-09-28T08:10:28.112Z,13.62
2018-09-28T08:12:57.159Z,13.62
2018-09-28T08:15:26.198Z,13.63
2018-09-28T08:17:55.211Z,13.63
2018-09-28T08:20:24.738Z,13.70
2018-09-28T08:22:54.895Z,13.67
2018-09-28T08:25:23.578Z,13.68
2018-09-28T08:27:53.433Z,13.77
2018-09-28T08:30:22.150Z,13.80
2018-09-28T08:32:51.055Z,13.84
2018-09-28T08:35:20.616Z,13.92
2018-09-28T08:37:49.454Z,14.00
2018-09-28T08:40:19.350Z,14.09
2018-09-28T08:42:48.197Z,14.21
2018-09-28T08:45:17.089Z,14.34
2018-09-28T08:47:45.932Z,14.37
2018-09-28T08:50:14.729Z,14.39
2018-09-28T08:52:44.213Z,14.48
2018-09-28T08:55:13.005Z,14.49
2018-09-28T08:57:41.723Z,14.51
2018-09-28T09:00:10.533Z,14.53
2018-09-28T09:02:39.228Z,14.53
2018-09-28T09:05:07.914Z,14.55
2018-09-28T09:07:36.637Z,14.56
2018-09-28T09:10:05.561Z,14.56
2018-09-28T09:12:34.417Z,14.57
2018-09-28T09:15:03.239Z,14.55
2018-09-28T09:17:33.964Z,14.57
2018-09-28T09:20:02.979Z,14.60
2018-09-28T09:22:32.033Z,14.65
2018-09-28T09:25:01.033Z,14.66
2018-09-28T09:27:35.261Z,14.73
2018-09-28T09:30:04.265Z,14.75
2018-09-28T09:32:35.142Z,14.77
2018-09-28T09:35:03.961Z,14.80
2018-09-28T09:37:32.788Z,14.87
2018-09-28T09:40:01.563Z,14.87
2018-09-28T09:42:30.473Z,14.83
2018-09-28T09:44:59.239Z,14.86
2018-09-28T09:47:28.344Z,14.90
2018-09-28T09:49:57.335Z,14.86
2018-09-28T09:52:26.023Z,14.82
2018-09-28T09:54:55.853Z,14.81
2018-09-28T09:57:24.765Z,14.79
2018-09-28T09:59:53.679Z,14.84
2018-09-28T10:02:28.448Z,14.86
2018-09-28T10:04:57.540Z,14.93
2018-09-28T10:07:26.332Z,14.96
2018-09-28T10:09:55.262Z,14.94
2018-09-28T10:12:24.101Z,15.09
2018-09-28T10:14:53.042Z,15.18
2018-09-28T10:17:28.313Z,15.33
2018-09-28T10:19:56.972Z,15.44
2018-09-28T10:22:25.821Z,15.51
2018-09-28T10:24:54.644Z,15.53
2018-09-28T10:27:24.249Z,15.39
2018-09-28T10:29:53.260Z,15.33
2018-09-28T10:32:22.072Z,15.33
2018-09-28T10:34:57.285Z,15.27
2018-09-28T10:37:27.202Z,15.29
2018-09-28T10:39:56.655Z,15.30
2018-09-28T10:42:25.573Z,15.31
2018-09-28T10:44:56.139Z,15.16
2018-09-28T10:47:27.005Z,15.18
2018-09-28T10:49:56.057Z,15.18
2018-09-28T10:52:26.911Z,15.18
2018-09-28T10:54:56.519Z,15.24
2018-09-28T10:57:25.459Z,15.30
2018-09-28T10:59:55.030Z,15.35
2018-09-28T11:02:25.462Z,15.42
2018-09-28T11:04:54.985Z,15.44
2018-09-28T11:07:25.213Z,15.43
2018-09-28T11:09:57.363Z,15.48
2018-09-28T11:12:26.864Z,15.45
2018-09-28T11:14:56.465Z,15.41
2018-09-28T11:17:25.971Z,15.35
2018-09-28T11:19:55.442Z,15.32
2018-09-28T11:22:24.863Z,15.27
2018-09-28T11:24:54.373Z,15.24
2018-09-28T11:27:24.618Z,15.20
2018-09-28T11:29:54.098Z,15.16
2018-09-28T11:32:23.609Z,15.20
2018-09-28T11:34:54.660Z,15.10
2018-09-28T11:37:24.153Z,14.93
2018-09-28T11:39:54.064Z,14.83
2018-09-28T11:42:23.577Z,14.88
2018-09-28T11:44:54.098Z,14.73
2018-09-28T11:47:24.300Z,14.60
2018-09-28T11:49:55.481Z,14.50
2018-09-28T11:52:24.872Z,14.48
2018-09-28T11:54:54.470Z,14.45
2018-09-28T11:57:23.963Z,14.48
2018-09-28T11:59:53.643Z,14.43
2018-09-28T12:02:23.976Z,14.49
2018-09-28T12:04:53.530Z,14.56
2018-09-28T12:07:23.446Z,14.68
2018-09-28T12:09:52.965Z,14.75
2018-09-28T12:12:22.552Z,14.86
2018-09-28T12:14:52.312Z,15.06
2018-09-28T12:17:22.316Z,15.17
2018-09-28T12:19:52.064Z,15.25
2018-09-28T12:22:28.358Z,15.38
2018-09-28T12:24:58.219Z,15.54
2018-09-28T12:27:27.826Z,15.66
2018-09-28T12:29:57.800Z,15.80
2018-09-28T12:32:27.199Z,16.02
2018-09-28T12:34:57.272Z,16.03
2018-09-28T12:37:26.764Z,16.22
2018-09-28T12:39:57.095Z,16.41
2018-09-28T12:42:27.199Z,16.39
2018-09-28T12:44:56.957Z,16.52
2018-09-28T12:47:26.481Z,16.78
2018-09-28T12:49:55.877Z,16.85
2018-09-28T12:52:25.623Z,16.78
2018-09-28T12:54:55.309Z,16.61
2018-09-28T12:57:24.747Z,16.48
2018-09-28T12:59:54.108Z,16.49
2018-09-28T13:02:23.648Z,16.19
2018-09-28T13:04:53.123Z,16.20
2018-09-28T13:07:22.651Z,16.25
2018-09-28T13:09:52.399Z,16.36
2018-09-28T13:12:21.886Z,16.41
2018-09-28T13:14:52.905Z,16.47
2018-09-28T13:17:22.482Z,16.53
2018-09-28T13:19:52.090Z,16.64
2018-09-28T13:22:22.360Z,16.76
2018-09-28T13:24:51.892Z,16.83
2018-09-28T13:27:21.420Z,16.86
2018-09-28T13:29:51.035Z,16.86
2018-09-28T13:32:21.514Z,16.92
2018-09-28T13:34:51.289Z,16.96
2018-09-28T13:37:20.710Z,17.01
2018-09-28T13:39:50.273Z,17.22
2018-09-28T13:42:19.735Z,17.32
2018-09-28T13:44:49.229Z,17.67
2018-09-28T13:47:18.758Z,17.86
2018-09-28T13:49:48.380Z,18.46
2018-09-28T13:52:17.717Z,18.82
2018-09-28T13:54:47.185Z,18.90
2018-09-28T13:57:16.742Z,18.74
2018-09-28T13:59:46.321Z,18.69
2018-09-28T14:02:16.817Z,18.83
2018-09-28T14:04:46.444Z,18.95
2018-09-28T14:07:15.809Z,19.07
2018-09-28T14:09:45.480Z,18.98
2018-09-28T14:12:14.994Z,18.78
2018-09-28T14:14:45.054Z,18.75
2018-09-28T14:17:14.660Z,18.76
2018-09-28T14:19:45.154Z,18.85
2018-09-28T14:22:15.546Z,18.94
2018-09-28T14:24:45.413Z,19.06
2018-09-28T14:27:16.616Z,18.91
2018-09-28T14:29:46.543Z,18.74
2018-09-28T14:32:17.010Z,18.52
2018-09-28T14:34:47.923Z,18.41
2018-09-28T14:37:17.705Z,18.23
2018-09-28T14:39:47.588Z,17.91
2018-09-28T14:42:17.393Z,17.63
2018-09-28T14:44:47.545Z,17.55
2018-09-28T14:47:17.102Z,17.40
2018-09-28T14:49:47.424Z,17.30
2018-09-28T14:52:17.950Z,17.15
2018-09-28T14:54:48.687Z,17.08
2018-09-28T14:57:18.439Z,17.14
2018-09-28T14:59:48.991Z,16.98
2018-09-28T15:02:18.523Z,16.99
2018-09-28T15:04:48.192Z,17.01
2018-09-28T15:07:17.758Z,17.06
2018-09-28T15:09:47.134Z,17.06
2018-09-28T15:12:16.501Z,17.06
2018-09-28T15:14:45.974Z,17.02
2018-09-28T15:17:15.554Z,16.93
2018-09-28T15:19:45.312Z,16.89
2018-09-28T15:22:14.847Z,16.80
2018-09-28T15:24:44.270Z,16.80
2018-09-28T15:27:14.077Z,16.70
2018-09-28T15:29:43.604Z,16.68
2018-09-28T15:32:13.186Z,16.67
2018-09-28T15:34:44.691Z,16.62
2018-09-28T15:37:14.207Z,16.65
2018-09-28T15:39:43.540Z,16.67
2018-09-28T15:42:13.383Z,16.67
2018-09-28T15:44:43.777Z,16.76
2018-09-28T15:47:13.255Z,16.79
2018-09-28T15:49:42.758Z,16.76
2018-09-28T15:52:12.353Z,16.74
2018-09-28T15:54:42.002Z,16.78
2018-09-28T15:57:11.630Z,16.78
2018-09-28T15:59:41.285Z,16.64
2018-09-28T16:02:10.845Z,16.58
2018-09-28T16:04:41.141Z,16.47
2018-09-28T16:07:10.685Z,16.42
2018-09-28T16:09:41.103Z,16.32
2018-09-28T16:12:10.667Z,16.36
2018-09-28T16:14:40.523Z,16.45
2018-09-28T16:17:10.281Z,16.55
2018-09-28T16:19:39.903Z,16.52
2018-09-28T16:22:09.542Z,16.53
2018-09-28T16:24:38.994Z,16.58
2018-09-28T16:27:08.497Z,16.51
2018-09-28T16:29:37.911Z,16.45
2018-09-28T16:32:08.821Z,16.36
2018-09-28T16:34:38.248Z,16.25
2018-09-28T16:37:08.262Z,16.13
2018-09-28T16:39:37.927Z,16.03
2018-09-28T16:42:07.700Z,15.91
2018-09-28T16:44:38.264Z,15.99
2018-09-28T16:47:08.026Z,15.83
2018-09-28T16:49:38.341Z,15.68
2018-09-28T16:52:09.275Z,15.70
2018-09-28T16:54:39.870Z,15.59
2018-09-28T16:57:09.552Z,15.50
2018-09-28T16:59:41.123Z,15.49
2018-09-28T17:02:10.700Z,15.38
2018-09-28T17:04:40.044Z,15.35
2018-09-28T17:07:09.748Z,15.35
2018-09-28T17:09:39.249Z,15.31
2018-09-28T17:12:09.378Z,15.24
2018-09-28T17:14:39.599Z,15.23
2018-09-28T17:17:09.676Z,15.16
2018-09-28T17:19:39.741Z,15.10
2018-09-28T17:22:09.768Z,15.05
2018-09-28T17:24:40.127Z,15.08
2018-09-28T17:27:09.751Z,15.01
2018-09-28T17:29:39.810Z,15.00
2018-09-28T17:32:09.651Z,14.94
2018-09-28T17:34:39.565Z,14.86
2018-09-28T17:37:11.091Z,14.87
2018-09-28T17:39:40.840Z,14.81
2018-09-28T17:42:11.089Z,14.77
2018-09-28T17:44:40.871Z,14.82
2018-09-28T17:47:10.666Z,14.79
2018-09-28T17:49:40.785Z,14.77
2018-09-28T17:52:10.982Z,14.72
2018-09-28T17:54:40.794Z,14.62
2018-09-28T17:57:10.537Z,14.61
2018-09-28T17:59:40.598Z,14.54
2018-09-28T18:02:11.314Z,14.45
2018-09-28T18:04:40.889Z,14.44
2018-09-28T18:07:10.288Z,14.36
2018-09-28T18:09:40.020Z,14.30
2018-09-28T18:12:09.908Z,14.25
2018-09-28T18:14:39.416Z,14.25
2018-09-28T18:17:09.036Z,14.19
2018-09-28T18:19:38.664Z,14.25
2018-09-28T18:22:08.351Z,14.25
2018-09-28T18:24:37.650Z,14.17
2018-09-28T18:27:07.189Z,14.12
2018-09-28T18:29:36.527Z,14.11
2018-09-28T18:32:05.828Z,14.10
2018-09-28T18:34:35.170Z,14.03
2018-09-28T18:37:04.600Z,13.96
2018-09-28T18:39:34.682Z,13.94
2018-09-28T18:42:04.127Z,13.92
2018-09-28T18:44:33.736Z,13.88
2018-09-28T18:47:03.032Z,13.94
2018-09-28T18:49:33.206Z,13.99
2018-09-28T18:52:02.499Z,14.03
2018-09-28T18:54:31.935Z,14.02
2018-09-28T18:57:02.165Z,14.04
2018-09-28T18:59:31.459Z,14.05
2018-09-28T19:02:03.263Z,13.95
2018-09-28T19:04:34.281Z,13.81
2018-09-28T19:07:04.077Z,13.76
2018-09-28T19:09:33.373Z,13.71
2018-09-28T19:12:02.820Z,13.67
2018-09-28T19:14:32.310Z,13.57
2018-09-28T19:17:01.783Z,13.52
2018-09-28T19:19:31.670Z,13.51
2018-09-28T19:22:01.001Z,13.43
2018-09-28T19:24:30.494Z,13.37
2018-09-28T19:26:59.910Z,13.39
2018-09-28T19:29:30.428Z,13.31
2018-09-28T19:31:59.872Z,13.26
2018-09-28T19:34:29.453Z,13.20
2018-09-28T19:37:00.018Z,13.23
2018-09-28T19:39:29.906Z,13.18
2018-09-28T19:41:59.512Z,13.10
2018-09-28T19:44:28.956Z,13.07
2018-09-28T19:46:58.417Z,13.06
2018-09-28T19:49:27.755Z,13.04
2018-09-28T19:51:57.522Z,13.01
2018-09-28T19:54:26.931Z,12.96
2018-09-28T19:56:56.550Z,12.97
2018-09-28T19:59:26.108Z,12.91
2018-09-28T20:01:55.461Z,12.90
2018-09-28T20:04:24.977Z,12.86
2018-09-28T20:06:54.440Z,12.81
2018-09-28T20:09:23.886Z,12.78
2018-09-28T20:11:53.615Z,12.76
2018-09-28T20:14:23.089Z,12.76
2018-09-28T20:16:52.606Z,12.72
2018-09-28T20:19:22.424Z,12.67
2018-09-28T20:21:51.777Z,12.65
2018-09-28T20:24:21.128Z,12.63
2018-09-28T20:26:50.607Z,12.59
2018-09-28T20:29:19.906Z,12.57
2018-09-28T20:31:49.575Z,12.53
2018-09-28T20:34:19.062Z,12.50
2018-09-28T20:36:49.674Z,12.50
2018-09-28T20:39:18.985Z,12.51
2018-09-28T20:41:48.436Z,12.51
2018-09-28T20:44:18.103Z,12.47
2018-09-28T20:46:47.691Z,12.43
2018-09-28T20:49:17.953Z,12.45
2018-09-28T20:51:48.173Z,12.39
2018-09-28T20:54:17.534Z,12.38
2018-09-28T20:56:47.044Z,12.35
2018-09-28T20:59:16.482Z,12.30
2018-09-28T21:01:45.881Z,12.27
2018-09-28T21:04:16.461Z,12.27
2018-09-28T21:06:46.697Z,12.24
2018-09-28T21:09:18.598Z,12.22
2018-09-28T21:11:48.243Z,12.20
2018-09-28T21:14:18.491Z,12.16
2018-09-28T21:16:48.158Z,12.13
2018-09-28T21:19:19.231Z,12.13
2018-09-28T21:21:48.681Z,12.14
2018-09-28T21:24:18.796Z,12.05
2018-09-28T21:26:48.435Z,12.03
2018-09-28T21:29:18.145Z,12.01
2018-09-28T21:31:47.651Z,12.03
2018-09-28T21:34:18.316Z,11.96
2018-09-28T21:36:49.590Z,11.97
2018-09-28T21:39:19.959Z,11.98
2018-09-28T21:41:49.448Z,11.91
2018-09-28T21:44:19.192Z,11.86
2018-09-28T21:46:49.012Z,11.80
2018-09-28T21:49:19.331Z,11.79
2018-09-28T21:51:48.714Z,11.76
2018-09-28T21:54:18.283Z,11.69
2018-09-28T21:56:47.750Z,11.67
2018-09-28T21:59:17.259Z,11.71
2018-09-28T22:01:47.139Z,11.67
2018-09-28T22:04:17.531Z,11.61
2018-09-28T22:06:48.437Z,11.53
2018-09-28T22:09:19.124Z,11.52
2018-09-28T22:11:49.192Z,11.53
2018-09-28T22:14:18.786Z,11.55
2018-09-28T22:16:48.670Z,11.46
2018-09-28T22:19:18.658Z,11.45
2018-09-28T22:21:48.320Z,11.43
2018-09-28T22:24:18.260Z,11.38
2018-09-28T22:26:48.370Z,11.30
2018-09-28T22:29:18.325Z,11.36
2018-09-28T22:31:48.569Z,11.34
2018-09-28T22:34:18.663Z,11.30
2018-09-28T22:36:48.287Z,11.25
2018-09-28T22:39:18.534Z,11.23
2018-09-28T22:41:48.226Z,11.18
2018-09-28T22:44:17.630Z,11.15
2018-09-28T22:46:48.852Z,11.13
2018-09-28T22:49:18.771Z,11.10
2018-09-28T22:51:49.525Z,11.02
2018-09-28T22:54:20.757Z,10.97
2018-09-28T22:56:50.904Z,10.90
2018-09-28T22:59:21.650Z,10.88
2018-09-28T23:01:52.581Z,10.85
2018-09-28T23:04:22.738Z,10.84
2018-09-28T23:06:55.876Z,10.81
2018-09-28T23:09:25.598Z,10.75
2018-09-28T23:11:55.460Z,10.71
2018-09-28T23:14:25.166Z,10.69
2018-09-28T23:16:54.777Z,10.71
2018-09-28T23:19:24.654Z,10.70
2018-09-28T23:21:54.556Z,10.71
2018-09-28T23:24:24.544Z,10.66
2018-09-28T23:26:54.284Z,10.63
2018-09-28T23:29:24.391Z,10.61
2018-09-28T23:31:54.927Z,10.59
2018-09-28T23:34:25.148Z,10.57
2018-09-28T23:36:55.271Z,10.56
2018-09-28T23:39:25.896Z,10.51
2018-09-28T23:41:55.833Z,10.45
2018-09-28T23:44:25.213Z,10.44
2018-09-28T23:46:55.046Z,10.41
2018-09-28T23:49:24.558Z,10.41
2018-09-28T23:51:54.675Z,10.39
2018-09-28T23:54:25.273Z,10.39
2018-09-28T23:56:54.814Z,10.36
2018-09-28T23:59:24.345Z,10.44
